Hillsboro, North Dakota
Current Conditions -  °F | °C
As of 3:53 PM on Thursday 25 Dec 2014 (Local Time) from KFAR Reporting Station
Overcast Overcast  
Wind Chill: 20°   Ceiling: 2400
Heat Index: 30°   Visibility: 10mi
Dew Point: 25°   Wind: 13mph
Humidity: 82%   Direction: 340°NNW
Pressure: 29.83"   Gusts: NA
Location:  47.4°N, 97.06°W
Report Text: KFAR 252153Z 34011KT 10SM OVC024 M01/M04 A2983 RMK AO2 SLP115 T10111039
Loading
Personal Weather Stations






























Interactive Weather Map New forecast layout! Learn more

10-Day Weather Forecast

Advertisements
Track Severe Weather on mobile